createdAt,value
2023-05-13T00:02:20.137Z,2.97
2023-05-13T00:04:47.271Z,2.97
2023-05-13T00:07:14.323Z,3.42
2023-05-13T00:09:41.526Z,3.08
2023-05-13T00:12:08.626Z,3.38
2023-05-13T00:14:35.682Z,3.70
2023-05-13T00:17:04.898Z,3.30
2023-05-13T00:19:32.077Z,3.22
2023-05-13T00:21:59.172Z,3.55
2023-05-13T00:24:26.231Z,3.30
2023-05-13T00:26:53.488Z,3.47
2023-05-13T00:29:20.604Z,3.65
2023-05-13T00:31:47.651Z,3.88
2023-05-13T00:34:17.046Z,3.40
2023-05-13T00:36:45.681Z,3.72
2023-05-13T00:39:13.472Z,3.50
2023-05-13T00:41:48.509Z,3.90
2023-05-13T00:44:15.598Z,3.63
2023-05-13T00:46:42.869Z,3.85
2023-05-13T00:49:10.291Z,4.13
2023-05-13T00:51:37.406Z,4.00
2023-05-13T00:54:05.198Z,4.05
2023-05-13T00:56:32.231Z,4.38
2023-05-13T00:58:59.331Z,3.95
2023-05-13T01:01:29.129Z,4.47
2023-05-13T01:04:20.669Z,4.57
2023-05-13T01:07:29.192Z,4.57
2023-05-13T01:10:02.671Z,4.45
2023-05-13T01:12:36.870Z,5.03
2023-05-13T01:15:09.461Z,4.22
2023-05-13T01:17:44.637Z,4.28
2023-05-13T01:20:12.301Z,4.60
2023-05-13T01:22:39.344Z,4.43
2023-05-13T01:25:07.132Z,3.97
2023-05-13T01:27:35.026Z,4.30
2023-05-13T01:30:03.391Z,3.80
2023-05-13T01:32:33.650Z,4.50
2023-05-13T01:35:01.587Z,4.45
2023-05-13T01:37:30.616Z,4.85
2023-05-13T01:39:57.847Z,4.40
2023-05-13T01:42:25.712Z,3.88
2023-05-13T01:44:53.847Z,4.18
2023-05-13T01:47:21.615Z,4.00
2023-05-13T01:49:48.726Z,4.45
2023-05-13T01:52:15.817Z,4.40
2023-05-13T01:54:42.906Z,4.50
2023-05-13T01:57:13.454Z,4.20
2023-05-13T01:59:40.721Z,3.97
2023-05-13T02:02:07.962Z,4.13
2023-05-13T02:04:35.146Z,3.85
2023-05-13T02:07:02.202Z,4.32
2023-05-13T02:09:31.343Z,3.83
2023-05-13T02:11:58.982Z,3.95
2023-05-13T02:14:26.278Z,3.58
2023-05-13T02:16:53.470Z,4.63
2023-05-13T02:19:21.827Z,3.95
2023-05-13T02:21:48.972Z,4.07
2023-05-13T02:24:16.620Z,3.60
2023-05-13T02:26:45.196Z,4.22
2023-05-13T02:29:12.274Z,3.85
2023-05-13T02:31:39.635Z,4.00
2023-05-13T02:34:06.907Z,4.07
2023-05-13T02:36:33.872Z,4.53
2023-05-13T02:39:01.307Z,4.07
2023-05-13T02:41:28.802Z,4.25
2023-05-13T02:43:55.915Z,4.05
2023-05-13T02:46:23.384Z,4.32
2023-05-13T02:48:50.592Z,3.83
2023-05-13T02:51:17.623Z,3.92
2023-05-13T02:53:44.681Z,3.92
2023-05-13T02:56:12.096Z,4.15
2023-05-13T02:58:39.207Z,4.28
2023-05-13T03:01:36.356Z,4.50
2023-05-13T03:04:03.564Z,4.45
2023-05-13T03:06:31.811Z,4.32
2023-05-13T03:08:58.851Z,4.40
2023-05-13T03:11:26.949Z,4.53
2023-05-13T03:13:53.989Z,4.47
2023-05-13T03:16:21.936Z,4.70
2023-05-13T03:18:48.993Z,4.32
2023-05-13T03:21:16.921Z,4.10
2023-05-13T03:23:45.091Z,4.30
2023-05-13T03:26:12.127Z,3.97
2023-05-13T03:28:39.811Z,4.50
2023-05-13T03:31:06.926Z,4.43
2023-05-13T03:33:37.656Z,3.90
2023-05-13T03:36:06.204Z,3.97
2023-05-13T03:38:33.302Z,4.72
2023-05-13T03:41:00.446Z,4.47
2023-05-13T03:43:27.642Z,5.15
2023-05-13T03:45:59.354Z,4.00
2023-05-13T03:48:26.891Z,4.75
2023-05-13T03:50:56.060Z,3.97
2023-05-13T03:53:23.715Z,4.43
2023-05-13T03:55:50.910Z,4.65
2023-05-13T03:58:18.665Z,4.38
2023-05-13T04:00:48.434Z,4.43
2023-05-13T04:05:47.124Z,4.57
2023-05-13T04:08:14.588Z,4.57
2023-05-13T04:10:43.303Z,5.10
2023-05-13T04:13:11.049Z,4.90
2023-05-13T04:15:38.009Z,5.32
2023-05-13T04:18:06.233Z,4.90
2023-05-13T04:20:35.017Z,4.87
2023-05-13T04:23:02.171Z,5.07
2023-05-13T04:25:29.830Z,4.55
2023-05-13T04:27:56.864Z,4.88
2023-05-13T04:30:34.944Z,4.40
2023-05-13T04:33:02.226Z,4.70
2023-05-13T04:35:30.350Z,5.22
2023-05-13T04:38:00.191Z,4.72
2023-05-13T04:40:27.224Z,4.88
2023-05-13T04:42:56.661Z,4.80
2023-05-13T04:45:28.582Z,4.35
2023-05-13T04:47:58.372Z,4.82
2023-05-13T04:50:26.140Z,4.38
2023-05-13T04:52:56.592Z,4.70
2023-05-13T04:55:26.750Z,4.78
2023-05-13T04:57:55.374Z,4.97
2023-05-13T05:00:22.638Z,4.40
2023-05-13T05:02:51.417Z,4.93
2023-05-13T05:05:18.797Z,4.97
2023-05-13T05:07:46.487Z,5.10
2023-05-13T05:10:15.585Z,4.82
2023-05-13T05:12:47.790Z,4.35
2023-05-13T05:15:17.681Z,5.18
2023-05-13T05:17:48.259Z,5.78
2023-05-13T05:20:15.424Z,5.65
2023-05-13T05:22:43.067Z,5.03
2023-05-13T05:25:11.975Z,4.93
2023-05-13T05:27:39.447Z,5.05
2023-05-13T05:30:07.589Z,6.05
2023-05-13T05:32:36.107Z,5.43
2023-05-13T05:35:04.964Z,5.22
2023-05-13T05:37:33.335Z,5.10
2023-05-13T05:40:00.794Z,4.75
2023-05-13T05:42:28.163Z,4.82
2023-05-13T05:44:55.619Z,4.88
2023-05-13T05:47:22.726Z,5.47
2023-05-13T05:49:50.241Z,5.47
2023-05-13T05:52:18.958Z,6.05
2023-05-13T05:54:46.214Z,5.53
2023-05-13T05:57:13.366Z,5.55
2023-05-13T05:59:40.473Z,5.47
2023-05-13T06:02:07.901Z,5.10
2023-05-13T06:04:35.933Z,5.97
2023-05-13T06:07:03.059Z,5.60
2023-05-13T06:09:30.512Z,5.05
2023-05-13T06:11:57.503Z,5.32
2023-05-13T06:14:24.519Z,5.38
2023-05-13T06:16:53.032Z,6.13
2023-05-13T06:19:20.791Z,5.30
2023-05-13T06:21:48.718Z,5.82
2023-05-13T06:24:15.696Z,6.50
2023-05-13T06:26:42.763Z,5.18
2023-05-13T06:29:09.737Z,5.40
2023-05-13T06:31:37.421Z,5.30
2023-05-13T06:34:04.440Z,5.53
2023-05-13T06:36:33.301Z,5.50
2023-05-13T06:41:30.495Z,5.57
2023-05-13T06:44:04.457Z,5.03
2023-05-13T06:46:31.526Z,5.18
2023-05-13T06:48:58.914Z,5.57
2023-05-13T06:51:27.600Z,5.28
2023-05-13T06:53:55.546Z,4.80
2023-05-13T06:56:26.033Z,5.63
2023-05-13T06:58:53.631Z,5.10
2023-05-13T07:01:20.755Z,5.50
2023-05-13T07:03:48.557Z,4.70
2023-05-13T07:06:15.741Z,5.40
2023-05-13T07:09:39.460Z,5.90
2023-05-13T07:12:06.847Z,5.18
2023-05-13T07:14:33.825Z,5.43
2023-05-13T07:17:51.345Z,5.15
2023-05-13T07:20:22.626Z,5.40
2023-05-13T07:22:50.754Z,5.30
2023-05-13T07:25:18.944Z,5.38
2023-05-13T07:27:46.123Z,5.75
2023-05-13T07:31:20.851Z,5.38
2023-05-13T07:33:47.932Z,5.82
2023-05-13T07:36:14.940Z,5.00
2023-05-13T07:38:41.966Z,6.03
2023-05-13T07:41:09.044Z,5.47
2023-05-13T07:43:36.143Z,7.18
2023-05-13T07:46:03.536Z,6.60
2023-05-13T07:48:31.711Z,5.85
2023-05-13T07:50:58.893Z,5.75
2023-05-13T07:53:26.254Z,5.82
2023-05-13T07:56:11.640Z,5.82
2023-05-13T07:58:38.637Z,6.30
2023-05-13T08:01:06.098Z,6.22
2023-05-13T08:03:33.440Z,6.03
2023-05-13T08:06:00.546Z,5.53
2023-05-13T08:08:27.644Z,5.68
2023-05-13T08:10:54.708Z,5.82
2023-05-13T08:13:21.994Z,5.85
2023-05-13T08:15:49.025Z,5.72
2023-05-13T08:18:16.176Z,6.40
2023-05-13T08:20:43.219Z,5.35
2023-05-13T08:23:10.415Z,5.60
2023-05-13T08:25:37.479Z,5.38
2023-05-13T08:28:04.620Z,5.90
2023-05-13T08:30:31.633Z,5.93
2023-05-13T08:32:58.718Z,6.03
2023-05-13T08:35:26.217Z,5.80
2023-05-13T08:37:53.215Z,5.65
2023-05-13T08:40:21.288Z,5.38
2023-05-13T08:42:53.331Z,5.28
2023-05-13T08:45:22.563Z,5.32
2023-05-13T08:47:58.033Z,5.18
2023-05-13T08:50:25.746Z,5.05
2023-05-13T08:52:56.518Z,6.03
2023-05-13T08:59:18.349Z,5.60
2023-05-13T09:01:45.946Z,5.70
2023-05-13T09:04:15.352Z,5.18
2023-05-13T09:06:42.412Z,5.60
2023-05-13T09:09:09.964Z,5.70
2023-05-13T09:11:50.678Z,4.88
2023-05-13T09:14:19.753Z,4.85
2023-05-13T09:16:48.188Z,4.95
2023-05-13T09:19:15.533Z,5.38
2023-05-13T09:21:44.624Z,5.35
2023-05-13T09:24:21.594Z,6.30
2023-05-13T09:31:13.575Z,6.10
2023-05-13T09:33:52.965Z,5.05
2023-05-13T09:36:20.472Z,5.30
2023-05-13T09:38:47.831Z,4.82
2023-05-13T09:41:19.996Z,5.18
2023-05-13T09:43:48.477Z,5.40
2023-05-13T09:46:15.912Z,5.22
2023-05-13T09:48:43.652Z,6.00
2023-05-13T09:51:10.686Z,5.75
2023-05-13T09:53:37.696Z,5.57
2023-05-13T09:56:05.377Z,10.00
2023-05-13T09:58:32.453Z,6.20
2023-05-13T10:00:59.917Z,5.63
2023-05-13T10:03:29.092Z,5.63
2023-05-13T10:05:59.914Z,5.83
2023-05-13T10:08:29.541Z,4.47
2023-05-13T10:10:57.007Z,5.07
2023-05-13T10:13:24.857Z,5.28
2023-05-13T10:15:53.948Z,5.10
2023-05-13T10:18:22.391Z,4.33
2023-05-13T10:20:55.703Z,4.53
2023-05-13T10:23:24.862Z,4.57
2023-05-13T10:26:05.378Z,4.00
2023-05-13T10:29:36.179Z,3.75
2023-05-13T10:32:04.693Z,4.38
2023-05-13T10:34:33.715Z,3.58
2023-05-13T10:37:12.503Z,3.93
2023-05-13T10:39:48.844Z,4.40
2023-05-13T10:42:34.462Z,4.88
2023-05-13T10:45:02.309Z,4.38
2023-05-13T10:47:33.027Z,4.50
2023-05-13T10:50:05.097Z,4.25
2023-05-13T10:52:47.971Z,4.40
2023-05-13T10:55:22.232Z,4.43
2023-05-13T10:58:09.258Z,4.40
2023-05-13T11:00:37.657Z,4.65
2023-05-13T11:03:20.149Z,4.40
2023-05-13T11:06:00.249Z,4.55
2023-05-13T11:08:40.779Z,5.05
2023-05-13T11:11:23.646Z,4.45
2023-05-13T11:14:26.756Z,4.28
2023-05-13T11:17:07.311Z,4.70
2023-05-13T11:19:39.787Z,5.15
2023-05-13T11:22:12.428Z,5.13
2023-05-13T11:24:40.727Z,4.90
2023-05-13T11:27:18.177Z,5.30
2023-05-13T11:29:53.392Z,5.00
2023-05-13T11:32:54.328Z,5.28
2023-05-13T11:35:26.508Z,5.10
2023-05-13T11:38:46.759Z,6.18
2023-05-13T11:41:14.686Z,5.50
2023-05-13T11:44:03.417Z,4.82
2023-05-13T11:46:30.612Z,4.95
2023-05-13T11:48:57.711Z,4.80
2023-05-13T11:51:29.235Z,4.82
2023-05-13T11:54:22.761Z,5.00
2023-05-13T11:56:49.757Z,4.75
2023-05-13T11:59:16.761Z,5.45
2023-05-13T12:02:14.847Z,4.57
2023-05-13T12:04:44.671Z,4.78
2023-05-13T12:07:12.358Z,5.00
2023-05-13T12:09:39.640Z,5.00
2023-05-13T12:12:07.248Z,4.60
2023-05-13T12:14:34.344Z,4.95
2023-05-13T12:17:02.024Z,4.68
2023-05-13T12:19:29.058Z,4.95
2023-05-13T12:21:56.217Z,5.13
2023-05-13T12:24:48.053Z,4.80
2023-05-13T12:32:03.791Z,4.63
2023-05-13T12:35:09.080Z,4.70
2023-05-13T12:37:36.278Z,4.60
2023-05-13T12:40:11.089Z,5.15
2023-05-13T12:42:38.251Z,4.72
2023-05-13T12:45:06.314Z,4.40
2023-05-13T12:47:51.155Z,3.95
2023-05-13T12:50:18.313Z,5.10
2023-05-13T12:52:45.468Z,4.80
2023-05-13T12:55:13.339Z,3.95
2023-05-13T12:57:44.816Z,5.07
2023-05-13T13:00:12.809Z,4.40
2023-05-13T13:02:41.329Z,4.32
2023-05-13T13:05:08.974Z,4.03
2023-05-13T13:07:38.116Z,3.53
2023-05-13T13:10:06.500Z,4.15
2023-05-13T13:12:33.551Z,4.22
2023-05-13T13:15:01.431Z,3.83
2023-05-13T13:17:28.487Z,3.92
2023-05-13T13:19:55.534Z,3.78
2023-05-13T13:22:22.485Z,3.88
2023-05-13T13:24:49.442Z,3.80
2023-05-13T13:27:16.466Z,4.32
2023-05-13T13:29:43.444Z,4.22
2023-05-13T13:32:10.760Z,3.95
2023-05-13T13:34:38.310Z,3.88
2023-05-13T13:37:05.603Z,3.95
2023-05-13T13:39:33.493Z,3.53
2023-05-13T13:42:00.479Z,3.75
2023-05-13T13:44:28.611Z,4.10
2023-05-13T13:46:55.700Z,6.10
2023-05-13T13:49:24.131Z,5.10
2023-05-13T13:51:54.157Z,4.90
2023-05-13T13:57:16.708Z,5.40
2023-05-13T13:59:43.738Z,4.60
2023-05-13T14:02:10.753Z,4.68
2023-05-13T14:04:37.809Z,4.10
2023-05-13T14:07:04.972Z,3.92
2023-05-13T14:09:32.947Z,4.60
2023-05-13T14:12:00.009Z,3.97
2023-05-13T14:14:27.100Z,3.72
2023-05-13T14:16:54.212Z,4.00
2023-05-13T14:19:21.191Z,4.10
2023-05-13T14:26:07.494Z,3.78
2023-05-13T14:28:34.643Z,3.97
2023-05-13T14:31:01.802Z,4.18
2023-05-13T14:33:59.859Z,4.10
2023-05-13T14:36:27.033Z,5.63
2023-05-13T14:38:54.575Z,8.63
2023-05-13T14:41:22.766Z,6.88
2023-05-13T14:43:49.911Z,4.20
2023-05-13T14:46:17.508Z,4.05
2023-05-13T14:48:44.672Z,6.45
2023-05-13T14:51:12.522Z,5.20
2023-05-13T14:53:42.933Z,3.97
2023-05-13T14:56:10.084Z,4.45
2023-05-13T14:58:37.177Z,4.20
2023-05-13T15:01:04.537Z,4.25
2023-05-13T15:03:31.611Z,3.88
2023-05-13T15:05:58.768Z,4.03
2023-05-13T15:08:25.939Z,4.43
2023-05-13T15:10:52.943Z,3.85
2023-05-13T15:13:20.074Z,3.47
2023-05-13T15:15:47.317Z,3.80
2023-05-13T15:18:14.769Z,3.35
2023-05-13T15:20:41.940Z,3.42
2023-05-13T15:23:09.028Z,3.28
2023-05-13T15:25:36.519Z,3.63
2023-05-13T15:28:03.656Z,2.80
2023-05-13T15:30:30.780Z,3.60
2023-05-13T15:32:57.956Z,3.63
2023-05-13T15:35:25.051Z,3.25
2023-05-13T15:37:52.175Z,3.00
2023-05-13T15:40:20.442Z,3.35
2023-05-13T15:42:48.445Z,3.78
2023-05-13T15:45:29.591Z,3.80
2023-05-13T15:47:56.766Z,3.70
2023-05-13T15:50:24.350Z,3.55
2023-05-13T15:52:51.638Z,4.03
2023-05-13T15:55:18.747Z,3.80
2023-05-13T15:57:46.494Z,3.67
2023-05-13T16:00:15.502Z,4.17
2023-05-13T16:02:44.241Z,4.05
2023-05-13T16:05:15.768Z,3.63
2023-05-13T16:07:42.931Z,3.70
2023-05-13T16:10:10.418Z,3.42
2023-05-13T16:12:37.925Z,3.70
2023-05-13T16:15:05.312Z,3.58
2023-05-13T16:17:33.079Z,3.92
2023-05-13T16:20:00.438Z,3.30
2023-05-13T16:22:34.128Z,3.30
2023-05-13T16:25:03.918Z,3.40
2023-05-13T16:27:31.708Z,4.60
2023-05-13T16:30:00.215Z,3.67
2023-05-13T16:32:28.298Z,3.58
2023-05-13T16:34:55.812Z,4.40
2023-05-13T16:40:36.120Z,3.10
2023-05-13T16:43:04.173Z,3.20
2023-05-13T16:45:31.498Z,3.10
2023-05-13T16:47:58.696Z,2.65
2023-05-13T16:50:26.374Z,3.15
2023-05-13T16:52:54.813Z,2.80
2023-05-13T16:55:22.883Z,3.00
2023-05-13T16:57:50.150Z,2.83
2023-05-13T17:00:17.555Z,3.22
2023-05-13T17:02:44.739Z,3.05
2023-05-13T17:05:11.881Z,3.00
2023-05-13T17:07:39.582Z,4.32
2023-05-13T17:10:07.328Z,4.40
2023-05-13T17:12:34.358Z,5.28
2023-05-13T17:15:01.517Z,4.75
2023-05-13T17:17:28.517Z,4.43
2023-05-13T17:19:55.704Z,5.50
2023-05-13T17:22:22.711Z,4.70
2023-05-13T17:24:49.778Z,3.28
2023-05-13T17:27:16.773Z,2.97
2023-05-13T17:29:43.875Z,3.15
2023-05-13T17:32:11.548Z,3.35
2023-05-13T17:34:38.654Z,3.15
2023-05-13T17:37:06.199Z,3.08
2023-05-13T17:39:33.166Z,3.20
2023-05-13T17:42:00.242Z,3.05
2023-05-13T17:44:27.214Z,3.47
2023-05-13T17:46:55.380Z,3.28
2023-05-13T17:49:22.389Z,2.95
2023-05-13T17:51:49.595Z,3.03
2023-05-13T17:54:16.741Z,2.80
2023-05-13T17:56:46.556Z,3.15
2023-05-13T17:59:14.051Z,2.40
2023-05-13T18:01:41.583Z,2.45
2023-05-13T18:04:09.051Z,2.50
2023-05-13T18:06:36.352Z,2.47
2023-05-13T18:09:03.664Z,2.88
2023-05-13T18:11:30.963Z,2.70
2023-05-13T18:14:00.261Z,2.90
2023-05-13T18:16:27.834Z,2.55
2023-05-13T18:18:55.059Z,3.15
2023-05-13T18:21:32.820Z,2.75
2023-05-13T18:24:00.379Z,3.78
2023-05-13T18:27:00.487Z,3.17
2023-05-13T18:29:28.019Z,3.50
2023-05-13T18:31:55.082Z,3.60
2023-05-13T18:34:22.302Z,4.22
2023-05-13T18:36:52.107Z,4.40
2023-05-13T18:39:25.590Z,6.93
2023-05-13T18:41:52.566Z,4.32
2023-05-13T18:44:19.704Z,3.55
2023-05-13T18:46:47.139Z,3.42
2023-05-13T18:49:14.153Z,3.50
2023-05-13T18:51:41.408Z,3.58
2023-05-13T18:54:08.637Z,4.00
2023-05-13T18:56:38.577Z,3.53
2023-05-13T18:59:06.099Z,3.97
2023-05-13T19:01:33.391Z,3.10
2023-05-13T19:04:00.801Z,3.28
2023-05-13T19:06:28.551Z,3.45
2023-05-13T19:08:55.539Z,3.72
2023-05-13T19:11:22.808Z,3.10
2023-05-13T19:13:50.126Z,3.10
2023-05-13T19:16:18.472Z,3.67
2023-05-13T19:18:45.716Z,3.85
2023-05-13T19:21:13.366Z,5.15
2023-05-13T19:23:41.712Z,4.70
2023-05-13T19:26:09.250Z,4.40
2023-05-13T19:28:38.135Z,4.13
2023-05-13T19:31:06.082Z,5.40
2023-05-13T19:33:33.204Z,5.47
2023-05-13T19:36:00.375Z,4.45
2023-05-13T19:38:27.431Z,5.20
2023-05-13T19:40:54.940Z,4.28
2023-05-13T19:43:21.975Z,4.40
2023-05-13T19:45:48.969Z,4.03
2023-05-13T19:48:16.009Z,3.70
2023-05-13T19:50:43.071Z,3.90
2023-05-13T19:53:10.203Z,3.78
2023-05-13T19:55:37.254Z,3.35
2023-05-13T19:58:04.330Z,4.05
2023-05-13T20:00:31.361Z,3.70
2023-05-13T20:02:58.537Z,4.00
2023-05-13T20:05:25.652Z,4.03
2023-05-13T20:07:52.730Z,3.97
2023-05-13T20:10:19.799Z,3.58
2023-05-13T20:12:46.898Z,3.50
2023-05-13T20:15:13.957Z,4.32
2023-05-13T20:17:41.195Z,3.97
2023-05-13T20:20:08.873Z,3.90
2023-05-13T20:22:36.038Z,3.88
2023-05-13T20:25:03.439Z,4.00
2023-05-13T20:27:30.451Z,4.93
2023-05-13T20:29:57.598Z,4.32
2023-05-13T20:32:25.095Z,4.07
2023-05-13T20:34:52.881Z,4.07
2023-05-13T20:37:24.207Z,4.57
2023-05-13T20:39:52.312Z,4.75
2023-05-13T20:42:29.640Z,4.57
2023-05-13T20:44:56.783Z,4.40
2023-05-13T20:47:24.066Z,4.35
2023-05-13T20:49:51.499Z,3.95
2023-05-13T20:52:18.930Z,3.83
2023-05-13T20:54:45.940Z,3.92
2023-05-13T20:57:25.686Z,4.00
2023-05-13T21:02:19.885Z,3.67
2023-05-13T21:04:46.919Z,4.00
2023-05-13T21:07:23.266Z,3.60
2023-05-13T21:09:50.262Z,3.47
2023-05-13T21:12:17.325Z,4.57
2023-05-13T21:14:44.339Z,4.20
2023-05-13T21:17:11.809Z,4.00
2023-05-13T21:19:38.863Z,4.00
2023-05-13T21:22:06.057Z,4.30
2023-05-13T21:24:33.144Z,4.68
2023-05-13T21:27:00.174Z,4.10
2023-05-13T21:29:27.233Z,4.32
2023-05-13T21:31:54.995Z,4.05
2023-05-13T21:34:22.297Z,4.10
2023-05-13T21:36:49.384Z,4.22
2023-05-13T21:39:16.516Z,4.10
2023-05-13T21:41:45.419Z,3.85
2023-05-13T21:44:12.477Z,3.60
2023-05-13T21:46:45.747Z,3.92
2023-05-13T21:49:13.062Z,4.53
2023-05-13T21:51:40.337Z,5.05
2023-05-13T21:54:07.348Z,4.25
2023-05-13T21:56:34.365Z,4.78
2023-05-13T21:59:01.414Z,4.57
2023-05-13T22:01:28.598Z,4.40
2023-05-13T22:03:55.774Z,4.13
2023-05-13T22:06:22.806Z,4.07
2023-05-13T22:08:49.846Z,4.18
2023-05-13T22:11:16.907Z,4.57
2023-05-13T22:13:43.960Z,4.78
2023-05-13T22:16:11.136Z,4.57
2023-05-13T22:18:39.649Z,4.60
2023-05-13T22:21:06.916Z,4.82
2023-05-13T22:23:34.127Z,5.25
2023-05-13T22:26:01.200Z,5.07
2023-05-13T22:28:28.173Z,4.97
2023-05-13T22:30:56.967Z,5.20
2023-05-13T22:33:23.979Z,5.13
2023-05-13T22:35:51.208Z,4.93
2023-05-13T22:38:18.368Z,5.22
2023-05-13T22:40:45.368Z,5.07
2023-05-13T22:43:12.350Z,4.57
2023-05-13T22:45:39.359Z,5.15
2023-05-13T22:48:06.676Z,5.05
2023-05-13T22:50:33.739Z,5.07
2023-05-13T22:53:00.711Z,5.30
2023-05-13T22:55:27.700Z,6.07
2023-05-13T22:57:54.975Z,7.60
2023-05-13T23:00:22.275Z,7.95
2023-05-13T23:02:49.579Z,7.03
2023-05-13T23:05:16.592Z,6.55
2023-05-13T23:07:43.552Z,6.47
2023-05-13T23:10:10.874Z,6.47
2023-05-13T23:12:37.952Z,6.57
2023-05-13T23:15:07.099Z,6.53
2023-05-13T23:17:34.239Z,6.05
2023-05-13T23:20:01.388Z,6.50
2023-05-13T23:22:28.434Z,6.50
2023-05-13T23:24:55.663Z,6.50
2023-05-13T23:27:22.782Z,7.25
2023-05-13T23:29:49.848Z,6.68
2023-05-13T23:32:16.850Z,6.90
2023-05-13T23:34:43.860Z,7.10
2023-05-13T23:37:11.554Z,6.57
2023-05-13T23:39:38.617Z,7.25
2023-05-13T23:42:05.744Z,7.03
2023-05-13T23:44:32.803Z,7.10
2023-05-13T23:46:59.890Z,6.97
2023-05-13T23:49:26.988Z,6.70
2023-05-13T23:51:53.950Z,6.97
2023-05-13T23:54:20.989Z,6.75
2023-05-13T23:56:48.060Z,7.40
2023-05-13T23:59:15.083Z,6.35
